createdAt,value
2022-12-19T00:00:32.432Z,74.35
2022-12-19T00:03:00.245Z,75.11
2022-12-19T00:05:27.722Z,75.43
2022-12-19T00:07:55.055Z,74.64
2022-12-19T00:10:22.649Z,74.13
2022-12-19T00:12:50.099Z,73.08
2022-12-19T00:15:17.862Z,73.72
2022-12-19T00:17:45.535Z,72.99
2022-12-19T00:20:12.877Z,73.75
2022-12-19T00:22:43.291Z,72.53
2022-12-19T00:25:11.179Z,71.92
2022-12-19T00:27:38.477Z,72.04
2022-12-19T00:30:06.259Z,72.76
2022-12-19T00:32:33.899Z,73.70
2022-12-19T00:35:01.194Z,74.57
2022-12-19T00:37:29.262Z,75.00
2022-12-19T00:39:56.813Z,74.87
2022-12-19T00:42:24.136Z,73.91
2022-12-19T00:44:51.518Z,73.74
2022-12-19T00:47:19.254Z,73.96
2022-12-19T00:49:46.730Z,74.48
2022-12-19T00:52:17.050Z,74.28
2022-12-19T00:54:44.650Z,74.42
2022-12-19T00:57:12.303Z,74.89
2022-12-19T00:59:40.939Z,75.71
2022-12-19T01:02:08.667Z,77.03
2022-12-19T01:04:41.317Z,75.82
2022-12-19T01:07:11.070Z,74.55
2022-12-19T01:09:38.545Z,75.75
2022-12-19T01:12:25.321Z,75.96
2022-12-19T01:15:04.622Z,76.08
2022-12-19T01:17:44.312Z,74.54
2022-12-19T01:20:29.756Z,75.92
2022-12-19T01:23:00.188Z,75.06
2022-12-19T01:25:28.558Z,76.00
2022-12-19T01:27:57.322Z,74.72
2022-12-19T01:30:24.967Z,74.91
2022-12-19T01:32:53.764Z,75.56
2022-12-19T01:35:21.850Z,76.10
2022-12-19T01:37:54.855Z,76.84
2022-12-19T01:40:36.578Z,75.44
2022-12-19T01:43:04.498Z,74.82
2022-12-19T01:45:37.416Z,75.41
2022-12-19T01:48:16.584Z,75.55
2022-12-19T01:51:01.371Z,75.37
2022-12-19T01:53:48.466Z,74.96
2022-12-19T01:56:18.510Z,75.79
2022-12-19T01:58:49.336Z,76.02
2022-12-19T02:01:18.527Z,75.45
2022-12-19T02:03:47.368Z,75.75
2022-12-19T02:06:15.350Z,76.57
2022-12-19T02:08:46.450Z,75.95
2022-12-19T02:11:16.599Z,76.10
2022-12-19T02:13:48.763Z,77.02
2022-12-19T02:16:42.252Z,77.00
2022-12-19T02:19:19.806Z,75.81
2022-12-19T02:22:16.112Z,75.62
2022-12-19T02:25:22.763Z,76.26
2022-12-19T02:28:28.375Z,76.30
2022-12-19T02:31:22.086Z,75.86
2022-12-19T02:34:10.246Z,75.59
2022-12-19T02:37:04.265Z,77.63
2022-12-19T02:39:51.057Z,76.12
2022-12-19T02:42:42.114Z,75.28
2022-12-19T02:45:22.758Z,76.86
2022-12-19T02:48:03.317Z,75.32
2022-12-19T02:50:41.837Z,75.75
2022-12-19T02:53:11.623Z,76.00
2022-12-19T02:55:51.183Z,76.48
2022-12-19T02:58:35.168Z,75.21
2022-12-19T03:01:21.972Z,75.37
2022-12-19T03:04:08.804Z,76.37
2022-12-19T03:07:05.885Z,76.23
2022-12-19T03:09:59.737Z,75.44
2022-12-19T03:12:36.883Z,76.25
2022-12-19T03:15:05.267Z,77.84
2022-12-19T03:17:39.201Z,75.90
2022-12-19T03:20:14.715Z,76.55
2022-12-19T03:22:42.557Z,76.88
2022-12-19T03:25:09.961Z,75.71
2022-12-19T03:27:39.845Z,75.68
2022-12-19T03:30:10.975Z,77.25
2022-12-19T03:32:41.739Z,76.70
2022-12-19T03:35:19.342Z,76.69
2022-12-19T03:37:50.121Z,78.34
2022-12-19T03:40:20.468Z,78.73
2022-12-19T03:43:08.656Z,78.27
2022-12-19T03:45:44.350Z,78.11
2022-12-19T03:48:19.568Z,77.52
2022-12-19T03:50:57.947Z,77.85
2022-12-19T03:53:38.496Z,77.49
2022-12-19T03:56:22.570Z,76.56
2022-12-19T03:58:57.884Z,78.18
2022-12-19T04:01:28.056Z,77.53
2022-12-19T04:03:59.028Z,77.76
2022-12-19T04:06:30.709Z,77.79
2022-12-19T04:09:00.141Z,77.15
2022-12-19T04:11:34.435Z,76.94
2022-12-19T04:14:08.711Z,77.33
2022-12-19T04:16:48.893Z,76.18
2022-12-19T04:19:25.144Z,76.37
2022-12-19T04:22:00.372Z,76.61
2022-12-19T04:24:33.532Z,77.08
2022-12-19T04:27:03.597Z,74.95
2022-12-19T04:29:34.397Z,75.94
2022-12-19T04:32:07.138Z,76.42
2022-12-19T04:34:36.868Z,76.05
2022-12-19T04:37:07.638Z,77.31
2022-12-19T04:39:35.333Z,77.96
2022-12-19T04:42:02.612Z,77.46
2022-12-19T04:44:30.150Z,76.75
2022-12-19T04:46:57.773Z,77.70
2022-12-19T04:49:25.213Z,77.01
2022-12-19T04:51:52.550Z,78.34
2022-12-19T04:54:20.360Z,78.39
2022-12-19T04:56:47.667Z,77.44
2022-12-19T04:59:15.110Z,77.97
2022-12-19T05:01:42.942Z,77.24
2022-12-19T05:04:10.393Z,77.58
2022-12-19T05:06:39.275Z,78.00
2022-12-19T05:09:07.048Z,77.91
2022-12-19T05:11:35.133Z,77.78
2022-12-19T05:14:02.845Z,77.62
2022-12-19T05:16:30.741Z,77.82
2022-12-19T05:18:58.190Z,77.40
2022-12-19T05:21:25.502Z,77.35
2022-12-19T05:23:53.320Z,77.50
2022-12-19T05:26:21.007Z,77.58
2022-12-19T05:28:49.133Z,77.54
2022-12-19T05:31:20.182Z,76.75
2022-12-19T05:33:48.778Z,77.57
2022-12-19T05:36:17.676Z,77.49
2022-12-19T05:38:45.407Z,77.91
2022-12-19T05:41:18.441Z,77.79
2022-12-19T05:43:50.723Z,76.76
2022-12-19T05:46:18.572Z,76.87
2022-12-19T05:48:46.384Z,77.34
2022-12-19T05:51:14.716Z,76.70
2022-12-19T05:53:42.242Z,76.81
2022-12-19T05:56:15.975Z,74.61
2022-12-19T05:58:45.220Z,75.07
2022-12-19T06:01:16.283Z,74.76
2022-12-19T06:03:44.812Z,76.18
2022-12-19T06:06:19.255Z,77.32
2022-12-19T06:08:47.847Z,76.79
2022-12-19T06:11:15.589Z,76.99
2022-12-19T06:13:43.094Z,76.47
2022-12-19T06:16:13.770Z,74.99
2022-12-19T06:18:44.783Z,74.92
2022-12-19T06:21:21.057Z,74.34
2022-12-19T06:23:48.919Z,74.14
2022-12-19T06:26:20.083Z,74.28
2022-12-19T06:28:49.158Z,74.07
2022-12-19T06:31:17.415Z,73.84
2022-12-19T06:33:44.996Z,73.19
2022-12-19T06:36:18.409Z,74.01
2022-12-19T06:38:46.184Z,74.55
2022-12-19T06:41:32.476Z,72.59
2022-12-19T06:44:01.489Z,73.49
2022-12-19T06:46:30.150Z,73.36
2022-12-19T06:48:57.507Z,74.86
2022-12-19T06:51:25.534Z,74.83
2022-12-19T06:53:53.153Z,75.07
2022-12-19T06:56:20.583Z,74.81
2022-12-19T06:58:48.384Z,75.64
2022-12-19T07:01:25.815Z,74.71
2022-12-19T07:03:54.418Z,74.80
2022-12-19T07:06:22.582Z,73.79
2022-12-19T07:08:49.927Z,74.06
2022-12-19T07:11:18.307Z,74.04
2022-12-19T07:13:45.643Z,73.34
2022-12-19T07:16:13.154Z,73.93
2022-12-19T07:18:41.957Z,73.86
2022-12-19T07:21:14.210Z,73.93
2022-12-19T07:23:42.178Z,74.75
2022-12-19T07:26:09.651Z,74.42
2022-12-19T07:28:38.089Z,75.08
2022-12-19T07:31:06.029Z,75.92
2022-12-19T07:33:34.020Z,76.36
2022-12-19T07:36:01.369Z,79.79
2022-12-19T07:38:29.048Z,79.88
2022-12-19T07:40:56.404Z,80.26
2022-12-19T07:43:23.966Z,79.79
2022-12-19T07:45:55.697Z,81.84
2022-12-19T07:48:23.671Z,82.01
2022-12-19T07:50:51.030Z,82.29
2022-12-19T07:53:18.690Z,81.57
2022-12-19T07:55:46.068Z,82.87
2022-12-19T07:58:16.171Z,83.36
2022-12-19T08:00:43.981Z,84.48
2022-12-19T08:03:11.826Z,83.85
2022-12-19T08:05:39.396Z,83.49
2022-12-19T08:08:06.769Z,83.31
2022-12-19T08:10:34.513Z,82.75
2022-12-19T08:13:01.852Z,82.82
2022-12-19T08:15:29.252Z,83.49
2022-12-19T08:17:56.993Z,83.11
2022-12-19T08:20:24.442Z,83.36
2022-12-19T08:22:51.761Z,84.03
2022-12-19T08:25:19.412Z,82.73
2022-12-19T08:27:46.801Z,85.35
2022-12-19T08:30:14.675Z,85.28
2022-12-19T08:32:42.745Z,84.72
2022-12-19T08:35:10.063Z,85.51
2022-12-19T08:37:37.579Z,84.21
2022-12-19T08:40:05.776Z,83.81
2022-12-19T08:42:33.806Z,83.92
2022-12-19T08:45:01.211Z,83.45
2022-12-19T08:47:28.998Z,83.38
2022-12-19T08:49:57.248Z,82.99
2022-12-19T08:52:24.997Z,83.28
2022-12-19T08:54:52.659Z,85.16
2022-12-19T08:57:20.104Z,84.72
2022-12-19T08:59:47.402Z,84.54
2022-12-19T09:02:16.417Z,84.29
2022-12-19T09:06:02.217Z,85.02
2022-12-19T09:07:31.629Z,84.48
2022-12-19T09:10:01.646Z,86.60
2022-12-19T09:12:29.040Z,86.60
2022-12-19T09:14:56.684Z,87.72
2022-12-19T09:17:23.995Z,87.31
2022-12-19T09:19:52.191Z,87.64
2022-12-19T09:22:21.174Z,87.96
2022-12-19T09:24:56.328Z,88.34
2022-12-19T09:27:24.595Z,88.66
2022-12-19T09:29:52.060Z,87.96
2022-12-19T09:32:19.346Z,88.20
2022-12-19T09:34:47.035Z,88.91
2022-12-19T09:37:16.356Z,87.40
2022-12-19T09:39:46.526Z,88.05
2022-12-19T09:42:20.465Z,87.72
2022-12-19T09:45:03.026Z,87.75
2022-12-19T09:47:32.681Z,86.67
2022-12-19T09:50:01.383Z,86.90
2022-12-19T09:52:43.570Z,85.72
2022-12-19T09:55:11.528Z,86.38
2022-12-19T09:57:55.858Z,86.81
2022-12-19T10:00:34.848Z,87.04
2022-12-19T10:03:12.865Z,86.61
2022-12-19T10:06:55.877Z,85.65
2022-12-19T10:09:09.995Z,85.37
2022-12-19T10:12:40.990Z,82.74
2022-12-19T10:15:26.341Z,83.22
2022-12-19T10:18:26.893Z,82.16
2022-12-19T10:21:12.030Z,83.59
2022-12-19T10:23:47.920Z,82.36
2022-12-19T10:26:34.544Z,81.88
2022-12-19T10:29:30.267Z,82.04
2022-12-19T10:32:10.139Z,82.35
2022-12-19T10:34:44.363Z,80.50
2022-12-19T10:37:45.682Z,81.10
2022-12-19T10:40:32.319Z,81.14
2022-12-19T10:43:07.900Z,81.46
2022-12-19T10:45:47.009Z,79.95
2022-12-19T10:48:21.279Z,80.57
2022-12-19T10:50:54.324Z,80.80
2022-12-19T10:53:29.954Z,80.34
2022-12-19T10:56:10.217Z,79.64
2022-12-19T10:58:38.636Z,78.79
2022-12-19T11:01:22.287Z,79.26
2022-12-19T11:04:19.024Z,79.39
2022-12-19T11:07:07.735Z,78.45
2022-12-19T11:09:40.813Z,79.00
2022-12-19T11:16:35.579Z,78.44
2022-12-19T11:22:42.465Z,78.28
2022-12-19T11:28:03.334Z,77.22
2022-12-19T11:29:27.192Z,77.33
2022-12-19T11:30:39.551Z,76.59
2022-12-19T11:30:43.170Z,77.08
2022-12-19T11:32:45.328Z,75.24
2022-12-19T11:35:16.310Z,74.75
2022-12-19T11:37:55.201Z,74.24
2022-12-19T11:40:33.378Z,74.28
2022-12-19T11:46:29.784Z,74.98
2022-12-19T11:49:01.765Z,74.75
2022-12-19T11:51:46.039Z,75.27
2022-12-19T11:54:22.664Z,75.38
2022-12-19T11:56:50.751Z,75.58
2022-12-19T11:59:27.520Z,74.33
2022-12-19T12:02:09.822Z,74.76
2022-12-19T12:04:56.146Z,75.40
2022-12-19T12:07:43.972Z,74.92
2022-12-19T12:14:57.445Z,75.56
2022-12-19T12:20:17.644Z,75.38
2022-12-19T12:24:58.820Z,76.01
2022-12-19T12:31:07.270Z,76.56
2022-12-19T12:31:07.829Z,76.43
2022-12-19T12:31:18.719Z,77.05
2022-12-19T12:31:57.408Z,75.73
2022-12-19T12:35:46.221Z,75.33
2022-12-19T12:40:40.076Z,75.33
2022-12-19T12:43:42.285Z,76.86
2022-12-19T12:46:20.342Z,77.49
2022-12-19T12:49:02.050Z,76.73
2022-12-19T12:51:33.300Z,77.86
2022-12-19T12:54:07.730Z,77.45
2022-12-19T12:56:37.235Z,77.37
2022-12-19T12:59:25.469Z,78.35
2022-12-19T13:02:00.699Z,77.31
2022-12-19T13:04:31.758Z,78.18
2022-12-19T13:07:13.936Z,79.61
2022-12-19T13:09:42.264Z,79.05
2022-12-19T13:12:46.376Z,78.76
2022-12-19T13:15:27.563Z,79.99
2022-12-19T13:17:55.217Z,78.90
2022-12-19T13:20:27.600Z,79.59
2022-12-19T13:22:58.755Z,79.35
2022-12-19T13:25:36.651Z,79.08
2022-12-19T13:28:04.332Z,78.37
2022-12-19T13:30:54.289Z,78.11
2022-12-19T13:33:20.868Z,77.53
2022-12-19T13:39:04.815Z,78.06
2022-12-19T13:39:58.210Z,78.07
2022-12-19T13:42:01.644Z,78.41
2022-12-19T13:44:36.952Z,78.36
2022-12-19T13:47:06.542Z,77.67
2022-12-19T13:49:35.499Z,78.55
2022-12-19T13:52:04.908Z,78.84
2022-12-19T13:54:36.898Z,78.93
2022-12-19T13:57:19.194Z,78.71
2022-12-19T13:59:59.660Z,79.13
2022-12-19T14:02:44.748Z,78.48
2022-12-19T14:05:30.613Z,78.33
2022-12-19T14:08:13.359Z,78.59
2022-12-19T14:11:41.683Z,79.07
2022-12-19T14:14:10.747Z,77.15
2022-12-19T14:16:46.004Z,78.32
2022-12-19T14:19:28.037Z,77.46
2022-12-19T14:22:15.786Z,77.43
2022-12-19T14:25:50.144Z,78.66
2022-12-19T14:28:19.732Z,78.06
2022-12-19T14:30:46.155Z,77.45
2022-12-19T14:33:43.987Z,78.77
2022-12-19T14:36:14.764Z,78.26
2022-12-19T14:39:23.670Z,77.67
2022-12-19T14:42:08.827Z,77.63
2022-12-19T14:52:26.128Z,77.97
2022-12-19T14:52:35.814Z,78.13
2022-12-19T14:54:16.637Z,77.34
2022-12-19T14:54:21.294Z,78.10
2022-12-19T14:59:01.825Z,78.06
2022-12-19T15:01:36.481Z,77.88
2022-12-19T15:04:52.764Z,78.12
2022-12-19T15:07:08.951Z,78.13
2022-12-19T15:11:06.266Z,78.34
2022-12-19T15:14:47.963Z,79.10
2022-12-19T15:16:02.433Z,78.17
2022-12-19T15:18:33.092Z,78.14
2022-12-19T15:21:02.988Z,78.50
2022-12-19T15:23:31.542Z,78.38
2022-12-19T15:26:07.050Z,79.00
2022-12-19T15:28:55.730Z,79.08
2022-12-19T15:31:36.533Z,78.82
2022-12-19T15:34:48.393Z,79.21
2022-12-19T15:37:16.482Z,79.08
2022-12-19T15:39:45.091Z,79.41
2022-12-19T15:42:20.205Z,79.49
2022-12-19T15:44:49.523Z,79.12
2022-12-19T15:47:32.025Z,79.87
2022-12-19T15:50:03.017Z,79.47
2022-12-19T15:52:30.384Z,79.92
2022-12-19T15:54:57.684Z,80.08
2022-12-19T15:57:36.562Z,79.82
2022-12-19T16:00:07.989Z,79.58
2022-12-19T16:03:20.639Z,78.49
2022-12-19T16:05:26.281Z,77.97
2022-12-19T16:07:54.336Z,76.95
2022-12-19T16:10:22.176Z,76.62
2022-12-19T16:12:53.281Z,76.99
2022-12-19T16:15:30.225Z,76.43
2022-12-19T16:17:59.304Z,76.17
2022-12-19T16:20:28.207Z,76.26
2022-12-19T16:22:55.814Z,74.98
2022-12-19T16:25:29.868Z,74.45
2022-12-19T16:27:59.563Z,74.73
2022-12-19T16:30:28.932Z,74.81
2022-12-19T16:32:56.223Z,74.70
2022-12-19T16:35:54.893Z,74.84
2022-12-19T16:38:13.237Z,74.38
2022-12-19T16:40:41.452Z,74.19
2022-12-19T16:43:27.024Z,73.71
2022-12-19T16:46:00.555Z,73.59
2022-12-19T16:48:32.266Z,74.00
2022-12-19T16:51:00.294Z,73.88
2022-12-19T16:53:28.037Z,73.21
2022-12-19T16:55:57.279Z,72.67
2022-12-19T16:58:27.667Z,72.76
2022-12-19T17:00:56.810Z,71.91
2022-12-19T17:03:41.928Z,71.53
2022-12-19T17:06:18.360Z,71.97
2022-12-19T17:08:46.688Z,72.08
2022-12-19T17:11:22.483Z,71.76
2022-12-19T17:13:53.611Z,72.13
2022-12-19T17:16:21.410Z,72.11
2022-12-19T17:18:49.311Z,72.63
2022-12-19T17:21:22.164Z,72.12
2022-12-19T17:23:50.855Z,71.48
2022-12-19T17:26:18.815Z,71.01
2022-12-19T17:28:48.449Z,70.54
2022-12-19T17:31:26.106Z,70.25
2022-12-19T17:33:58.055Z,69.57
2022-12-19T17:36:32.642Z,70.02
2022-12-19T17:39:21.897Z,70.27
2022-12-19T17:41:50.726Z,69.83
2022-12-19T17:44:19.051Z,70.12
2022-12-19T17:46:48.856Z,70.34
2022-12-19T17:49:21.142Z,69.89
2022-12-19T17:51:52.524Z,69.91
2022-12-19T17:54:21.134Z,69.80
2022-12-19T17:56:50.636Z,70.16
2022-12-19T17:59:18.076Z,69.92
2022-12-19T18:01:49.341Z,69.76
2022-12-19T18:04:21.814Z,70.82
2022-12-19T18:06:49.530Z,71.26
2022-12-19T18:09:22.424Z,71.02
2022-12-19T18:11:50.949Z,71.08
2022-12-19T18:14:20.003Z,71.68
2022-12-19T18:16:49.969Z,71.97
2022-12-19T18:19:24.683Z,72.26
2022-12-19T18:21:52.684Z,73.09
2022-12-19T18:24:20.473Z,73.61
2022-12-19T18:26:47.983Z,73.62
2022-12-19T18:29:16.837Z,73.79
2022-12-19T18:31:50.409Z,74.50
2022-12-19T18:34:23.111Z,74.50
2022-12-19T18:36:51.872Z,74.78
2022-12-19T18:39:26.193Z,74.41
2022-12-19T18:41:54.814Z,74.63
2022-12-19T18:44:23.228Z,75.08
2022-12-19T18:46:52.188Z,75.37
2022-12-19T18:49:19.924Z,74.92
2022-12-19T18:51:49.149Z,74.63
2022-12-19T18:54:22.442Z,74.82
2022-12-19T18:56:50.207Z,74.70
2022-12-19T18:59:17.534Z,74.09
2022-12-19T19:01:47.056Z,74.50
2022-12-19T19:04:18.216Z,74.11
2022-12-19T19:06:51.769Z,74.81
2022-12-19T19:09:21.308Z,73.33
2022-12-19T19:11:49.639Z,74.17
2022-12-19T19:14:18.151Z,73.25
2022-12-19T19:16:46.298Z,73.05
2022-12-19T19:19:18.573Z,73.01
2022-12-19T19:21:46.532Z,72.60
2022-12-19T19:24:20.832Z,72.13
2022-12-19T19:26:49.656Z,72.32
2022-12-19T19:29:19.161Z,72.01
2022-12-19T19:31:49.719Z,71.96
2022-12-19T19:34:23.377Z,71.80
2022-12-19T19:36:54.975Z,72.32
2022-12-19T19:39:23.559Z,71.86
2022-12-19T19:41:51.090Z,72.36
2022-12-19T19:44:18.473Z,73.12
2022-12-19T19:46:46.296Z,73.26
2022-12-19T19:49:13.748Z,72.16
2022-12-19T19:51:41.384Z,72.62
2022-12-19T19:54:09.157Z,73.02
2022-12-19T19:56:36.551Z,72.09
2022-12-19T19:59:04.021Z,72.29
2022-12-19T20:01:32.329Z,71.96
2022-12-19T20:04:00.297Z,71.89
2022-12-19T20:06:27.782Z,71.71
2022-12-19T20:08:55.071Z,72.44
2022-12-19T20:11:22.780Z,72.33
2022-12-19T20:13:50.126Z,72.53
2022-12-19T20:16:19.359Z,73.77
2022-12-19T20:18:52.075Z,73.40
2022-12-19T20:21:20.970Z,72.74
2022-12-19T20:23:48.699Z,73.97
2022-12-19T20:26:17.498Z,73.74
2022-12-19T20:28:49.323Z,74.56
2022-12-19T20:31:23.297Z,75.32
2022-12-19T20:33:53.308Z,74.77
2022-12-19T20:36:21.702Z,75.01
2022-12-19T20:38:50.221Z,74.78
2022-12-19T20:41:18.610Z,75.43
2022-12-19T20:43:46.394Z,75.51
2022-12-19T20:46:19.143Z,76.13
2022-12-19T20:48:48.295Z,76.72
2022-12-19T20:51:17.525Z,76.56
2022-12-19T20:53:45.584Z,75.76
2022-12-19T20:56:17.094Z,75.26
2022-12-19T20:58:45.557Z,76.20
2022-12-19T21:01:22.348Z,75.61
2022-12-19T21:03:50.538Z,75.96
2022-12-19T21:06:21.303Z,76.44
2022-12-19T21:08:48.887Z,76.04
2022-12-19T21:11:18.223Z,77.03
2022-12-19T21:13:46.591Z,76.70
2022-12-19T21:16:18.049Z,76.64
2022-12-19T21:18:47.386Z,76.87
2022-12-19T21:21:18.554Z,76.55
2022-12-19T21:23:46.611Z,76.85
2022-12-19T21:26:14.397Z,77.32
2022-12-19T21:28:42.147Z,77.76
2022-12-19T21:31:19.208Z,78.64
2022-12-19T21:33:47.350Z,78.73
2022-12-19T21:36:21.826Z,79.14
2022-12-19T21:38:51.149Z,79.89
2022-12-19T21:41:19.659Z,80.22
2022-12-19T21:43:54.547Z,79.94
2022-12-19T21:46:28.023Z,80.36
2022-12-19T21:48:57.037Z,80.03
2022-12-19T21:51:26.151Z,80.13
2022-12-19T21:53:56.055Z,79.90
2022-12-19T21:56:29.797Z,79.17
2022-12-19T21:59:00.893Z,79.26
2022-12-19T22:01:29.278Z,78.79
2022-12-19T22:04:02.609Z,79.40
2022-12-19T22:06:32.799Z,79.62
2022-12-19T22:09:03.244Z,81.09
2022-12-19T22:11:31.351Z,81.01
2022-12-19T22:14:00.586Z,81.60
2022-12-19T22:16:29.476Z,81.59
2022-12-19T22:18:57.079Z,81.29
2022-12-19T22:21:25.554Z,81.36
2022-12-19T22:23:57.775Z,81.73
2022-12-19T22:26:26.784Z,81.48
2022-12-19T22:28:56.205Z,81.72
2022-12-19T22:31:30.427Z,81.19
2022-12-19T22:34:03.912Z,81.64
2022-12-19T22:36:32.973Z,81.09
2022-12-19T22:39:01.397Z,80.90
2022-12-19T22:41:29.029Z,80.32
2022-12-19T22:43:56.704Z,80.63
2022-12-19T22:46:30.492Z,80.17
2022-12-19T22:49:00.721Z,80.18
2022-12-19T22:51:30.488Z,80.13
2022-12-19T22:53:58.234Z,79.44
2022-12-19T22:56:28.421Z,79.55
2022-12-19T22:58:59.066Z,78.98
2022-12-19T23:01:32.745Z,78.57
2022-12-19T23:04:02.762Z,78.33
2022-12-19T23:06:32.607Z,77.68
2022-12-19T23:09:01.468Z,78.59
2022-12-19T23:11:32.258Z,78.80
2022-12-19T23:14:02.080Z,78.23
2022-12-19T23:16:29.785Z,77.85
2022-12-19T23:18:57.748Z,77.86
2022-12-19T23:21:26.542Z,78.52
2022-12-19T23:23:55.470Z,78.69
2022-12-19T23:26:28.730Z,78.65
2022-12-19T23:29:00.736Z,78.07
2022-12-19T23:31:29.296Z,77.90
2022-12-19T23:33:58.062Z,77.47
2022-12-19T23:37:08.894Z,77.03
2022-12-19T23:39:14.148Z,77.07
2022-12-19T23:41:41.591Z,77.38
2022-12-19T23:44:10.342Z,76.42
2022-12-19T23:46:38.401Z,77.03
2022-12-19T23:49:06.308Z,77.12
2022-12-19T23:51:33.629Z,76.79
2022-12-19T23:54:01.272Z,76.68
2022-12-19T23:56:30.994Z,76.74
2022-12-19T23:58:59.122Z,76.19
